Etusivu
METAR-TAF:

METAR-TAF

Lentoasemat :

Córdoba, Argentiina

Leveyspiiri: 31-19S, Pituuspiiri: 064-13W, korkeus merenpinnasta: 484 m

Tämänhetkinen sää

Tämä raportti tehtiin 43 minuuttia sitten, kello 00.00 UTC
Tuuli 9 kn koillisesta
Lämpötila 12°C
Kosteus 54%
Ilmanpaine 1009 hPa
Näkyvyys 10 km tai enemmän
ei pilviä alle 1500 m:ssä eikä cumulonimbus-pilviä

METAR: SACO 230000Z 04009KT CAVOK 12/03 Q1009

Aika: 21:43 (00:43 UTC)

Sääennuste

Tämä raportti tehtiin 1 tunti ja 43 minuuttia sitten, kello 23.00 UTC
Ennuste voimassa 23. päivästä klo 00 UTC - 23. päivään klo 24 UTC
Tuuli 10 kn pohjoisesta
Näkyvyys 10 km tai enemmän
ei pilviä alle 1500 m:ssä eikä cumulonimbus-pilviä
Tulossa
23. päivästä klo 17 UTC - 23. päivään klo 20 UTC
Tuuli 15 kn etelästä
Näkyvyys 10 km tai enemmän
Hajanaisia pilviä 3500 ft:n korkeudessa

TAF: SACO 222300Z 2300/2324 36010KT CAVOK TX26/2318Z TN06/2310Z BECMG 2317/2320 18015KT 9999 SCT035

Säähavainnot ja -ennusteet yli 4000 lentoasemalta (METAR- ja TAF-raportit).

Käytössä olevat sääasemat on merkitty karttaan keltaisilla ja punaisilla pisteillä.

Aseta hiiri pisteen päälle nähdäksesi sääaseman nimen.

Klikkaa sitten nähdäksesi säähavainnot ja -ennusteet.

Kartan vaihtaminen: klikkaa mustalla rastilla varustettuja vihreitä pisteitä, niin voit zoomata sisään; viivalla varustettua vihreää pistettä, niin voit zoomata ulos tai vihreitä nuolia, niin pääset viereisille kartoille.


METAR-TAF: